createdAt,value
2023-12-11T00:02:49.599Z,12.90
2023-12-11T00:07:53.263Z,12.90
2023-12-11T00:12:58.487Z,12.90
2023-12-11T00:18:02.082Z,12.90
2023-12-11T00:23:05.748Z,12.90
2023-12-11T00:28:10.637Z,12.80
2023-12-11T00:33:14.310Z,12.80
2023-12-11T00:38:17.804Z,12.80
2023-12-11T00:43:22.645Z,12.80
2023-12-11T00:48:26.118Z,12.80
2023-12-11T00:53:29.567Z,12.70
2023-12-11T00:58:34.526Z,12.70
2023-12-11T01:03:39.409Z,12.70
2023-12-11T01:08:42.965Z,12.70
2023-12-11T01:13:47.913Z,12.70
2023-12-11T01:18:51.417Z,12.60
2023-12-11T01:23:57.924Z,12.60
2023-12-11T01:29:03.040Z,12.60
2023-12-11T01:34:06.621Z,12.50
2023-12-11T01:39:10.082Z,12.50
2023-12-11T01:44:14.852Z,12.50
2023-12-11T01:49:19.428Z,12.40
2023-12-11T01:54:23.426Z,12.40
2023-12-11T01:59:28.511Z,12.40
2023-12-11T02:04:32.403Z,12.30
2023-12-11T02:09:36.250Z,12.30
2023-12-11T02:14:41.979Z,12.30
2023-12-11T02:19:45.486Z,12.30
2023-12-11T02:24:52.056Z,12.20
2023-12-11T02:29:57.388Z,12.20
2023-12-11T02:35:00.828Z,12.20
2023-12-11T02:40:06.310Z,12.20
2023-12-11T02:45:12.057Z,12.10
2023-12-11T02:50:15.658Z,12.10
2023-12-11T02:55:19.089Z,12.10
2023-12-11T03:00:24.305Z,12.10
2023-12-11T03:05:27.721Z,12.10
2023-12-11T03:10:31.064Z,12.10
2023-12-11T03:15:36.034Z,12.10
2023-12-11T03:20:39.429Z,12.10
2023-12-11T03:25:42.949Z,12.10
2023-12-11T03:30:47.784Z,12.10
2023-12-11T03:35:51.168Z,12.10
2023-12-11T03:40:54.918Z,12.10
2023-12-11T03:46:01.254Z,12.10
2023-12-11T03:51:04.969Z,12.10
2023-12-11T03:56:09.114Z,12.10
2023-12-11T04:01:14.036Z,12.10
2023-12-11T04:06:17.572Z,12.10
2023-12-11T04:11:20.992Z,12.10
2023-12-11T04:16:25.926Z,12.10
2023-12-11T04:21:29.468Z,12.10
2023-12-11T04:26:32.868Z,12.10
2023-12-11T04:31:37.759Z,12.00
2023-12-11T04:36:43.827Z,12.00
2023-12-11T04:41:47.378Z,12.00
2023-12-11T04:46:52.064Z,11.90
2023-12-11T04:51:55.473Z,11.80
2023-12-11T04:56:58.912Z,11.80
2023-12-11T05:02:03.734Z,11.70
2023-12-11T05:07:07.545Z,11.70
2023-12-11T05:12:11.160Z,11.60
2023-12-11T05:17:16.161Z,11.60
2023-12-11T05:22:19.798Z,11.60
2023-12-11T05:27:23.238Z,11.60
2023-12-11T05:32:28.102Z,11.50
2023-12-11T05:37:31.955Z,11.60
2023-12-11T05:42:35.500Z,11.50
2023-12-11T05:47:40.476Z,11.60
2023-12-11T05:52:43.952Z,11.60
2023-12-11T05:57:48.677Z,11.30
2023-12-11T06:02:53.889Z,11.60
2023-12-11T06:07:57.853Z,11.80
2023-12-11T06:13:01.371Z,12.00
2023-12-11T06:18:06.652Z,12.10
2023-12-11T06:23:10.011Z,12.10
2023-12-11T06:28:13.764Z,12.10
2023-12-11T06:33:31.702Z,12.10
2023-12-11T06:38:55.407Z,12.00
2023-12-11T06:43:59.512Z,12.00
2023-12-11T06:49:04.543Z,12.00
2023-12-11T06:54:09.016Z,11.90
2023-12-11T06:59:12.519Z,11.90
2023-12-11T07:04:17.602Z,11.90
2023-12-11T07:09:21.268Z,11.90
2023-12-11T07:14:25.477Z,11.80
2023-12-11T07:19:30.462Z,11.80
2023-12-11T07:24:35.773Z,11.80
2023-12-11T07:29:39.223Z,11.80
2023-12-11T07:34:44.266Z,11.90
2023-12-11T07:39:47.778Z,11.90
2023-12-11T07:44:51.349Z,11.80
2023-12-11T07:49:56.188Z,11.90
2023-12-11T07:54:59.928Z,11.80
2023-12-11T08:00:05.344Z,11.90
2023-12-11T08:05:13.109Z,11.90
2023-12-11T08:10:17.696Z,11.80
2023-12-11T08:15:21.295Z,11.80
2023-12-11T08:20:26.587Z,11.70
2023-12-11T08:25:30.127Z,11.70
2023-12-11T08:30:33.586Z,11.70
2023-12-11T08:35:38.798Z,11.60
2023-12-11T08:40:42.250Z,11.60
2023-12-11T08:45:45.706Z,11.60
2023-12-11T08:50:53.703Z,11.60
2023-12-11T08:55:57.067Z,11.70
2023-12-11T09:01:00.902Z,11.70
2023-12-11T09:06:06.349Z,11.80
2023-12-11T09:11:09.829Z,11.90
2023-12-11T09:16:13.400Z,11.90
2023-12-11T09:21:18.325Z,11.90
2023-12-11T09:26:21.744Z,12.00
2023-12-11T09:31:26.053Z,12.10
2023-12-11T09:36:31.044Z,12.20
2023-12-11T09:41:35.936Z,12.20
2023-12-11T09:46:49.797Z,12.30
2023-12-11T09:51:55.379Z,12.30
2023-12-11T09:56:59.888Z,12.40
2023-12-11T10:02:05.321Z,12.40
2023-12-11T10:07:11.648Z,12.50
2023-12-11T10:12:15.132Z,12.50
2023-12-11T10:17:19.668Z,12.50
2023-12-11T10:22:32.404Z,12.60
2023-12-11T10:27:36.138Z,12.60
2023-12-11T10:32:39.634Z,12.70
2023-12-11T10:37:45.055Z,12.70
2023-12-11T10:43:00.466Z,12.80
2023-12-11T10:48:04.611Z,12.90
2023-12-11T10:53:10.822Z,13.00
2023-12-11T10:58:14.662Z,13.00
2023-12-11T11:03:20.010Z,13.10
2023-12-11T11:08:32.161Z,13.10
2023-12-11T11:13:40.992Z,13.10
2023-12-11T11:19:07.216Z,13.20
2023-12-11T11:24:30.519Z,13.30
2023-12-11T11:29:41.302Z,13.30
2023-12-11T11:34:46.906Z,13.40
2023-12-11T11:40:03.739Z,13.40
2023-12-11T11:45:09.639Z,13.50
2023-12-11T11:50:14.379Z,13.60
2023-12-11T11:55:25.277Z,13.60
2023-12-11T12:00:30.261Z,13.60
2023-12-11T12:05:34.010Z,13.70
2023-12-11T12:10:38.919Z,13.70
2023-12-11T12:15:44.841Z,13.70
2023-12-11T12:21:03.249Z,13.80
2023-12-11T12:26:08.553Z,13.80
2023-12-11T12:31:12.040Z,13.80
2023-12-11T12:36:15.408Z,13.90
2023-12-11T12:41:20.551Z,14.00
2023-12-11T12:46:27.324Z,14.00
2023-12-11T12:51:30.656Z,14.10
2023-12-11T12:56:35.336Z,14.10
2023-12-11T13:01:39.751Z,14.20
2023-12-11T13:06:43.485Z,14.20
2023-12-11T13:11:51.146Z,14.30
2023-12-11T13:16:56.624Z,14.30
2023-12-11T13:22:00.073Z,14.30
2023-12-11T13:27:05.562Z,14.30
2023-12-11T13:32:09.514Z,14.30
2023-12-11T13:37:12.829Z,14.40
2023-12-11T13:42:18.188Z,14.40
2023-12-11T13:47:23.128Z,14.40
2023-12-11T13:52:26.482Z,14.40
2023-12-11T13:57:31.439Z,14.40
2023-12-11T14:02:59.582Z,14.40
2023-12-11T14:07:58.369Z,14.40
2023-12-11T14:13:03.236Z,14.40
2023-12-11T14:18:08.412Z,14.40
2023-12-11T14:23:13.863Z,14.40
2023-12-11T14:28:18.499Z,14.30
2023-12-11T14:33:22.052Z,14.30
2023-12-11T14:38:25.638Z,14.30
2023-12-11T14:43:30.443Z,14.20
2023-12-11T14:48:36.532Z,14.20
2023-12-11T14:53:39.851Z,14.10
2023-12-11T14:58:44.679Z,14.10
2023-12-11T15:03:48.027Z,14.00
2023-12-11T15:08:51.443Z,14.00
2023-12-11T15:13:56.303Z,14.00
2023-12-11T15:19:00.787Z,14.00
2023-12-11T15:24:04.492Z,13.90
2023-12-11T15:29:09.186Z,13.90
2023-12-11T15:34:12.535Z,13.80
2023-12-11T15:39:16.067Z,13.80
2023-12-11T15:44:20.979Z,13.70
2023-12-11T15:49:24.652Z,13.70
2023-12-11T15:54:28.057Z,13.70
2023-12-11T15:59:32.684Z,13.70
2023-12-11T16:04:36.205Z,13.70
2023-12-11T16:09:39.546Z,13.60
2023-12-11T16:14:44.196Z,13.60
2023-12-11T16:19:49.156Z,13.60
2023-12-11T16:24:52.935Z,13.50
2023-12-11T16:29:59.046Z,13.50
2023-12-11T16:35:02.487Z,13.40
2023-12-11T16:40:07.728Z,13.40
2023-12-11T16:45:14.512Z,13.30
2023-12-11T16:50:18.251Z,13.30
2023-12-11T16:55:21.669Z,13.30
2023-12-11T17:00:26.418Z,13.20
2023-12-11T17:05:30.096Z,13.20
2023-12-11T17:10:33.599Z,13.20
2023-12-11T17:15:38.679Z,13.10
2023-12-11T17:20:45.078Z,13.10
2023-12-11T17:25:48.402Z,13.10
2023-12-11T17:30:53.811Z,13.10
2023-12-11T17:35:57.518Z,13.00
2023-12-11T17:41:01.356Z,13.00
2023-12-11T17:46:06.345Z,13.00
2023-12-11T17:51:11.586Z,13.00
2023-12-11T17:56:16.591Z,13.00
2023-12-11T18:01:21.559Z,13.00
2023-12-11T18:06:25.081Z,13.00
2023-12-11T18:11:28.506Z,13.00
2023-12-11T18:16:34.797Z,13.00
2023-12-11T18:21:38.095Z,13.00
2023-12-11T18:26:41.295Z,13.00
2023-12-11T18:31:46.078Z,13.00
2023-12-11T18:36:49.496Z,13.00
2023-12-11T18:41:52.984Z,13.00
2023-12-11T18:46:59.673Z,13.10
2023-12-11T18:52:05.320Z,13.10
2023-12-11T18:57:09.022Z,13.10
2023-12-11T19:02:14.211Z,13.10
2023-12-11T19:07:20.377Z,13.10
2023-12-11T19:12:24.164Z,13.20
2023-12-11T19:17:29.975Z,13.20
2023-12-11T19:22:34.632Z,13.30
2023-12-11T19:27:42.829Z,13.30
2023-12-11T19:32:47.974Z,13.40
2023-12-11T19:37:52.017Z,13.40
2023-12-11T19:42:56.349Z,13.40
2023-12-11T19:48:01.417Z,13.30
2023-12-11T19:53:05.187Z,13.40
2023-12-11T19:58:10.020Z,13.30
2023-12-11T20:03:14.978Z,13.30
2023-12-11T20:08:18.285Z,13.30
2023-12-11T20:13:22.970Z,13.30
2023-12-11T20:18:27.820Z,13.30
2023-12-11T20:23:31.322Z,13.30
2023-12-11T20:28:34.877Z,13.30
2023-12-11T20:33:40.348Z,13.30
2023-12-11T20:38:46.855Z,13.20
2023-12-11T20:43:51.243Z,13.20
2023-12-11T20:48:56.166Z,13.20
2023-12-11T20:53:59.953Z,13.30
2023-12-11T20:59:03.661Z,13.30
2023-12-11T21:04:09.198Z,13.30
2023-12-11T21:09:15.606Z,13.30
2023-12-11T21:14:20.449Z,13.30
2023-12-11T21:19:25.394Z,13.40
2023-12-11T21:24:32.327Z,13.40
2023-12-11T21:29:36.038Z,13.50
2023-12-11T21:34:45.207Z,13.60
2023-12-11T21:39:49.863Z,13.70
2023-12-11T21:44:53.263Z,13.80
2023-12-11T21:49:58.001Z,14.00
2023-12-11T21:55:02.078Z,14.00
2023-12-11T22:00:06.310Z,14.20
2023-12-11T22:05:16.896Z,14.30
2023-12-11T22:10:20.352Z,14.40
2023-12-11T22:15:23.873Z,14.40
2023-12-11T22:20:28.829Z,14.50
2023-12-11T22:25:32.298Z,14.60
2023-12-11T22:30:35.810Z,14.70
2023-12-11T22:35:40.583Z,14.70
2023-12-11T22:40:44.886Z,14.80
2023-12-11T22:45:48.323Z,14.80
2023-12-11T22:50:53.061Z,14.90
2023-12-11T22:55:56.422Z,15.00
2023-12-11T23:00:59.866Z,15.00
2023-12-11T23:06:05.275Z,15.10
2023-12-11T23:11:09.084Z,15.20
2023-12-11T23:16:12.446Z,15.20
2023-12-11T23:21:20.704Z,15.30
2023-12-11T23:26:25.019Z,15.30
2023-12-11T23:31:28.569Z,15.40
2023-12-11T23:36:33.444Z,15.50
2023-12-11T23:41:38.018Z,15.50
2023-12-11T23:46:41.443Z,15.50
2023-12-11T23:51:46.154Z,15.60
2023-12-11T23:56:49.589Z,15.60
